createdAt,value
2023-01-10T00:00:47.604Z,6.10
2023-01-10T00:01:49.281Z,6.00
2023-01-10T00:02:53.312Z,6.00
2023-01-10T00:03:54.925Z,5.90
2023-01-10T00:04:56.405Z,5.90
2023-01-10T00:05:57.955Z,5.90
2023-01-10T00:07:00.087Z,5.80
2023-01-10T00:08:04.417Z,5.80
2023-01-10T00:09:05.807Z,5.80
2023-01-10T00:10:07.831Z,5.80
2023-01-10T00:11:47.636Z,5.90
2023-01-10T00:13:07.823Z,5.90
2023-01-10T00:14:09.476Z,5.90
2023-01-10T00:15:11.127Z,5.90
2023-01-10T00:16:12.862Z,5.90
2023-01-10T00:17:14.463Z,5.90
2023-01-10T00:18:16.215Z,6.00
2023-01-10T00:19:17.756Z,6.00
2023-01-10T00:20:19.438Z,5.90
2023-01-10T00:21:21.253Z,5.90
2023-01-10T00:22:25.054Z,5.90
2023-01-10T00:23:28.397Z,6.00
2023-01-10T00:24:29.786Z,6.00
2023-01-10T00:25:33.314Z,6.00
2023-01-10T00:26:34.787Z,6.00
2023-01-10T00:27:36.247Z,6.00
2023-01-10T00:28:39.182Z,6.00
2023-01-10T00:29:40.845Z,6.00
2023-01-10T00:30:43.147Z,6.00
2023-01-10T00:31:44.684Z,5.90
2023-01-10T00:32:46.277Z,5.90
2023-01-10T00:33:48.843Z,6.10
2023-01-10T00:34:50.434Z,6.10
2023-01-10T00:35:52.118Z,6.00
2023-01-10T00:36:53.582Z,6.00
2023-01-10T00:38:01.311Z,5.90
2023-01-10T00:39:02.809Z,5.90
2023-01-10T00:40:08.556Z,5.80
2023-01-10T00:41:29.911Z,5.80
2023-01-10T00:42:50.217Z,5.80
2023-01-10T00:43:58.057Z,5.80
2023-01-10T00:44:59.567Z,5.80
2023-01-10T00:46:02.700Z,5.80
2023-01-10T00:47:04.391Z,5.80
2023-01-10T00:48:06.019Z,5.80
2023-01-10T00:49:12.128Z,5.80
2023-01-10T00:50:13.774Z,5.80
2023-01-10T00:51:15.205Z,5.70
2023-01-10T00:52:16.629Z,5.70
2023-01-10T00:53:18.449Z,5.70
2023-01-10T00:54:20.048Z,5.70
2023-01-10T00:55:21.597Z,5.80
2023-01-10T00:56:23.001Z,5.70
2023-01-10T00:57:24.480Z,5.70
2023-01-10T00:58:25.949Z,5.60
2023-01-10T00:59:29.445Z,5.60
2023-01-10T01:00:30.926Z,5.70
2023-01-10T01:01:32.797Z,5.70
2023-01-10T01:02:34.425Z,5.70
2023-01-10T01:03:35.861Z,5.80
2023-01-10T01:04:37.353Z,5.80
2023-01-10T01:05:42.889Z,5.80
2023-01-10T01:06:45.865Z,5.70
2023-01-10T01:07:51.616Z,5.70
2023-01-10T01:08:53.159Z,5.70
2023-01-10T01:10:13.398Z,5.70
2023-01-10T01:11:14.791Z,5.60
2023-01-10T01:12:16.421Z,5.60
2023-01-10T01:13:22.005Z,5.60
2023-01-10T01:14:24.706Z,5.60
2023-01-10T01:15:27.658Z,5.60
2023-01-10T01:16:29.254Z,5.60
2023-01-10T01:17:30.628Z,5.60
2023-01-10T01:18:32.293Z,5.60
2023-01-10T01:19:33.707Z,5.60
2023-01-10T01:20:35.155Z,5.70
2023-01-10T01:21:36.648Z,5.70
2023-01-10T01:22:38.081Z,5.70
2023-01-10T01:23:39.606Z,5.60
2023-01-10T01:24:42.003Z,5.60
2023-01-10T01:25:43.458Z,5.60
2023-01-10T01:26:45.688Z,5.60
2023-01-10T01:27:47.171Z,5.60
2023-01-10T01:28:48.812Z,5.60
2023-01-10T01:29:50.232Z,5.70
2023-01-10T01:30:52.101Z,5.80
2023-01-10T01:31:53.714Z,5.80
2023-01-10T01:32:55.432Z,5.70
2023-01-10T01:33:57.371Z,5.70
2023-01-10T01:34:58.959Z,5.70
2023-01-10T01:36:00.594Z,5.80
2023-01-10T01:37:02.050Z,5.70
2023-01-10T01:38:03.680Z,5.70
2023-01-10T01:39:06.223Z,5.70
2023-01-10T01:40:10.300Z,5.70
2023-01-10T01:41:31.077Z,5.60
2023-01-10T01:42:34.704Z,5.70
2023-01-10T01:44:03.680Z,5.70
2023-01-10T01:45:23.177Z,5.70
2023-01-10T01:46:24.714Z,5.70
2023-01-10T01:47:28.060Z,5.70
2023-01-10T01:48:39.824Z,5.70
2023-01-10T01:49:44.981Z,5.60
2023-01-10T01:51:15.243Z,5.60
2023-01-10T01:52:25.561Z,5.70
2023-01-10T01:53:43.943Z,5.70
2023-01-10T01:54:45.418Z,5.70
2023-01-10T01:55:48.251Z,5.80
2023-01-10T01:56:55.801Z,5.70
2023-01-10T01:58:00.473Z,5.70
2023-01-10T01:59:20.448Z,5.60
2023-01-10T02:00:22.501Z,5.60
2023-01-10T02:01:24.255Z,5.60
2023-01-10T02:02:34.566Z,5.60
2023-01-10T02:03:37.380Z,5.70
2023-01-10T02:04:55.298Z,5.70
2023-01-10T02:05:57.112Z,5.70
2023-01-10T02:06:59.353Z,5.60
2023-01-10T02:08:04.538Z,5.60
2023-01-10T02:09:23.322Z,5.60
2023-01-10T02:10:36.393Z,5.60
2023-01-10T02:11:37.821Z,5.60
2023-01-10T02:12:40.221Z,5.60
2023-01-10T02:13:43.817Z,5.60
2023-01-10T02:14:48.274Z,5.70
2023-01-10T02:15:50.659Z,5.70
2023-01-10T02:16:52.626Z,5.70
2023-01-10T02:17:54.346Z,5.60
2023-01-10T02:18:55.826Z,5.60
2023-01-10T02:20:03.191Z,5.60
2023-01-10T02:21:07.914Z,5.60
2023-01-10T02:22:30.803Z,5.60
2023-01-10T02:23:51.692Z,5.70
2023-01-10T02:25:19.810Z,5.60
2023-01-10T02:26:52.398Z,5.60
2023-01-10T02:28:12.285Z,5.60
2023-01-10T02:29:51.127Z,5.60
2023-01-10T02:31:11.650Z,5.40
2023-01-10T02:32:13.081Z,5.50
2023-01-10T02:33:17.645Z,5.50
2023-01-10T02:34:33.191Z,5.50
2023-01-10T02:35:56.803Z,5.50
2023-01-10T02:37:26.222Z,5.50
2023-01-10T02:38:36.341Z,5.50
2023-01-10T02:39:47.303Z,5.50
2023-01-10T02:40:54.357Z,5.60
2023-01-10T02:42:08.230Z,5.50
2023-01-10T02:43:19.286Z,5.60
2023-01-10T02:44:36.551Z,5.60
2023-01-10T02:45:55.845Z,5.60
2023-01-10T02:46:57.493Z,5.60
2023-01-10T02:47:59.179Z,5.60
2023-01-10T02:49:00.938Z,5.60
2023-01-10T02:50:28.161Z,5.60
2023-01-10T02:51:33.468Z,5.60
2023-01-10T02:52:34.918Z,5.60
2023-01-10T02:53:39.851Z,5.50
2023-01-10T02:54:41.690Z,5.60
2023-01-10T02:56:19.253Z,5.60
2023-01-10T02:57:39.111Z,5.60
2023-01-10T02:59:07.775Z,5.60
2023-01-10T03:00:15.401Z,5.60
2023-01-10T03:01:40.730Z,5.60
2023-01-10T03:03:12.243Z,5.60
2023-01-10T03:05:01.989Z,5.60
2023-01-10T03:06:22.115Z,5.60
2023-01-10T03:07:23.784Z,5.60
2023-01-10T03:08:33.497Z,5.60
2023-01-10T03:09:49.797Z,5.60
2023-01-10T03:10:57.842Z,5.70
2023-01-10T03:12:12.068Z,5.70
2023-01-10T03:13:23.936Z,5.70
2023-01-10T03:14:28.534Z,5.70
2023-01-10T03:15:34.229Z,5.60
2023-01-10T03:16:37.886Z,5.70
2023-01-10T03:17:41.636Z,5.80
2023-01-10T03:19:10.287Z,5.70
2023-01-10T03:20:12.712Z,5.60
2023-01-10T03:21:15.475Z,5.70
2023-01-10T03:22:18.169Z,5.70
2023-01-10T03:23:22.733Z,5.60
2023-01-10T03:24:36.435Z,5.60
2023-01-10T03:25:38.662Z,5.50
2023-01-10T03:26:48.516Z,5.50
2023-01-10T03:28:03.011Z,5.50
2023-01-10T03:29:10.727Z,5.50
2023-01-10T03:30:21.152Z,5.60
2023-01-10T03:31:52.037Z,5.60
2023-01-10T03:32:55.486Z,5.60
2023-01-10T03:33:57.131Z,5.70
2023-01-10T03:35:01.058Z,5.70
2023-01-10T03:36:31.179Z,5.70
2023-01-10T03:37:42.168Z,5.70
2023-01-10T03:38:55.339Z,5.70
2023-01-10T03:40:08.458Z,5.60
2023-01-10T03:41:14.017Z,5.60
2023-01-10T03:42:20.602Z,5.60
2023-01-10T03:43:56.442Z,5.70
2023-01-10T03:45:13.492Z,5.70
2023-01-10T03:46:30.901Z,5.70
2023-01-10T03:47:46.494Z,5.60
2023-01-10T03:48:49.291Z,5.60
2023-01-10T03:49:56.426Z,5.70
2023-01-10T03:51:02.413Z,5.70
2023-01-10T03:52:05.772Z,5.70
2023-01-10T03:53:07.301Z,5.60
2023-01-10T03:54:09.113Z,5.60
2023-01-10T03:55:13.404Z,5.60
2023-01-10T03:56:15.306Z,5.60
2023-01-10T03:57:19.305Z,5.60
2023-01-10T03:58:21.960Z,5.50
2023-01-10T03:59:29.155Z,5.60
2023-01-10T04:00:30.989Z,5.60
2023-01-10T04:01:33.017Z,5.60
2023-01-10T04:02:34.713Z,5.60
2023-01-10T04:03:36.182Z,5.50
2023-01-10T04:04:37.684Z,5.60
2023-01-10T04:05:39.057Z,5.60
2023-01-10T04:06:41.668Z,5.60
2023-01-10T04:07:43.141Z,5.50
2023-01-10T04:08:44.648Z,5.60
2023-01-10T04:09:46.145Z,5.60
2023-01-10T04:10:49.500Z,5.50
2023-01-10T04:11:51.174Z,5.50
2023-01-10T04:12:52.816Z,5.50
2023-01-10T04:13:54.205Z,5.60
2023-01-10T04:14:55.688Z,5.60
2023-01-10T04:16:00.642Z,5.50
2023-01-10T04:17:02.141Z,5.60
2023-01-10T04:18:03.708Z,5.60
2023-01-10T04:19:05.292Z,5.60
2023-01-10T04:20:07.127Z,5.50
2023-01-10T04:21:08.586Z,5.50
2023-01-10T04:22:11.694Z,5.60
2023-01-10T04:23:13.172Z,5.60
2023-01-10T04:24:14.611Z,5.50
2023-01-10T04:25:16.751Z,5.60
2023-01-10T04:26:18.184Z,5.60
2023-01-10T04:27:20.662Z,5.60
2023-01-10T04:28:24.382Z,5.50
2023-01-10T04:29:27.078Z,5.50
2023-01-10T04:30:28.614Z,5.50
2023-01-10T04:31:30.307Z,5.50
2023-01-10T04:32:32.039Z,5.40
2023-01-10T04:33:33.654Z,5.40
2023-01-10T04:34:35.159Z,5.40
2023-01-10T04:35:36.703Z,5.40
2023-01-10T04:36:38.219Z,5.40
2023-01-10T04:37:39.953Z,5.40
2023-01-10T04:38:41.423Z,5.40
2023-01-10T04:39:43.154Z,5.40
2023-01-10T04:40:45.099Z,5.40
2023-01-10T04:41:46.682Z,5.50
2023-01-10T04:42:48.134Z,5.50
2023-01-10T04:43:49.778Z,5.40
2023-01-10T04:44:51.213Z,5.50
2023-01-10T04:45:53.033Z,5.50
2023-01-10T04:46:54.904Z,5.60
2023-01-10T04:47:56.614Z,5.60
2023-01-10T04:48:59.180Z,5.50
2023-01-10T04:50:00.663Z,5.50
2023-01-10T04:51:02.082Z,5.60
2023-01-10T04:52:03.489Z,5.60
2023-01-10T04:53:04.920Z,5.60
2023-01-10T04:54:06.628Z,5.60
2023-01-10T04:55:08.337Z,5.60
2023-01-10T04:56:16.605Z,5.60
2023-01-10T04:57:18.073Z,5.60
2023-01-10T04:58:19.550Z,5.60
2023-01-10T04:59:21.216Z,5.60
2023-01-10T05:00:22.776Z,5.60
2023-01-10T05:01:25.879Z,5.50
2023-01-10T05:02:27.450Z,5.50
2023-01-10T05:03:29.513Z,5.50
2023-01-10T05:04:31.227Z,5.50
2023-01-10T05:05:32.683Z,5.50
2023-01-10T05:06:34.337Z,5.50
2023-01-10T05:07:36.497Z,5.50
2023-01-10T05:08:37.902Z,5.50
2023-01-10T05:09:39.620Z,5.50
2023-01-10T05:10:41.151Z,5.50
2023-01-10T05:11:42.576Z,5.50
2023-01-10T05:12:44.036Z,5.50
2023-01-10T05:13:47.912Z,5.50
2023-01-10T05:14:49.679Z,5.50
2023-01-10T05:15:55.627Z,5.50
2023-01-10T05:16:57.124Z,5.60
2023-01-10T05:18:01.123Z,5.60
2023-01-10T05:19:02.935Z,5.50
2023-01-10T05:20:05.414Z,5.60
2023-01-10T05:21:10.128Z,5.60
2023-01-10T05:22:11.807Z,5.60
2023-01-10T05:23:13.240Z,5.60
2023-01-10T05:24:14.707Z,5.50
2023-01-10T05:25:16.278Z,5.50
2023-01-10T05:26:20.952Z,5.50
2023-01-10T05:27:22.423Z,5.50
2023-01-10T05:28:24.732Z,5.50
2023-01-10T05:29:26.293Z,5.50
2023-01-10T05:30:27.768Z,5.50
2023-01-10T05:31:29.744Z,5.50
2023-01-10T05:32:31.278Z,5.50
2023-01-10T05:33:33.032Z,5.40
2023-01-10T05:34:34.684Z,5.40
2023-01-10T05:35:36.187Z,5.40
2023-01-10T05:36:37.642Z,5.40
2023-01-10T05:37:40.289Z,5.40
2023-01-10T05:38:42.105Z,5.30
2023-01-10T05:39:43.633Z,5.40
2023-01-10T05:40:45.094Z,5.50
2023-01-10T05:41:46.457Z,5.40
2023-01-10T05:42:47.825Z,5.30
2023-01-10T05:43:49.700Z,5.30
2023-01-10T05:44:51.129Z,5.30
2023-01-10T05:45:52.756Z,5.30
2023-01-10T05:46:54.197Z,5.30
2023-01-10T05:47:55.647Z,5.30
2023-01-10T05:48:57.239Z,5.30
2023-01-10T05:49:58.626Z,5.30
2023-01-10T05:51:00.670Z,5.30
2023-01-10T05:52:02.128Z,5.40
2023-01-10T05:53:05.878Z,5.40
2023-01-10T05:54:08.259Z,5.30
2023-01-10T05:55:09.993Z,5.30
2023-01-10T05:56:11.433Z,5.40
2023-01-10T05:57:13.646Z,5.30
2023-01-10T05:58:15.207Z,5.30
2023-01-10T05:59:27.516Z,5.30
2023-01-10T06:00:29.471Z,5.30
2023-01-10T06:01:30.864Z,5.40
2023-01-10T06:02:32.993Z,5.40
2023-01-10T06:03:34.540Z,5.30
2023-01-10T06:04:36.026Z,5.20
2023-01-10T06:05:37.395Z,5.20
2023-01-10T06:06:38.861Z,5.20
2023-01-10T06:07:40.368Z,5.20
2023-01-10T06:08:41.982Z,5.20
2023-01-10T06:09:43.605Z,5.20
2023-01-10T06:10:44.983Z,5.10
2023-01-10T06:11:46.403Z,5.10
2023-01-10T06:12:49.694Z,5.10
2023-01-10T06:13:55.759Z,5.00
2023-01-10T06:14:57.585Z,5.00
2023-01-10T06:15:59.540Z,4.90
2023-01-10T06:17:01.020Z,4.90
2023-01-10T06:18:02.947Z,5.00
2023-01-10T06:19:04.865Z,5.00
2023-01-10T06:20:06.766Z,5.00
2023-01-10T06:21:08.436Z,5.00
2023-01-10T06:22:09.973Z,5.00
2023-01-10T06:23:11.458Z,5.00
2023-01-10T06:24:13.152Z,5.00
2023-01-10T06:25:14.892Z,5.00
2023-01-10T06:26:16.592Z,5.10
2023-01-10T06:27:18.149Z,5.10
2023-01-10T06:28:19.574Z,5.00
2023-01-10T06:29:21.109Z,5.00
2023-01-10T06:30:22.853Z,4.90
2023-01-10T06:31:24.266Z,5.10
2023-01-10T06:32:26.006Z,5.10
2023-01-10T06:33:27.619Z,5.10
2023-01-10T06:34:28.981Z,5.00
2023-01-10T06:35:30.778Z,5.10
2023-01-10T06:36:32.269Z,5.20
2023-01-10T06:37:33.876Z,5.20
2023-01-10T06:38:35.384Z,5.20
2023-01-10T06:39:36.942Z,5.20
2023-01-10T06:40:38.393Z,5.20
2023-01-10T06:41:39.907Z,5.10
2023-01-10T06:42:41.707Z,5.10
2023-01-10T06:43:47.865Z,5.10
2023-01-10T06:44:49.327Z,5.10
2023-01-10T06:45:50.881Z,5.10
2023-01-10T06:46:52.407Z,5.10
2023-01-10T06:47:53.900Z,5.10
2023-01-10T06:48:55.517Z,5.10
2023-01-10T06:49:57.159Z,5.10
2023-01-10T06:50:58.580Z,5.10
2023-01-10T06:52:00.425Z,5.10
2023-01-10T06:53:04.499Z,5.10
2023-01-10T06:54:06.099Z,5.10
2023-01-10T06:55:07.944Z,5.10
2023-01-10T06:56:09.954Z,5.00
2023-01-10T06:57:11.658Z,5.10
2023-01-10T06:58:18.669Z,5.00
2023-01-10T06:59:20.170Z,5.00
2023-01-10T07:00:22.432Z,5.00
2023-01-10T07:01:24.417Z,5.00
2023-01-10T07:02:26.133Z,5.10
2023-01-10T07:03:27.630Z,5.10
2023-01-10T07:04:29.175Z,5.10
2023-01-10T07:05:30.887Z,5.10
2023-01-10T07:06:37.252Z,5.00
2023-01-10T07:07:38.694Z,5.10
2023-01-10T07:08:41.952Z,5.00
2023-01-10T07:09:43.442Z,5.00
2023-01-10T07:10:45.039Z,5.00
2023-01-10T07:11:46.492Z,5.10
2023-01-10T07:12:47.996Z,5.20
2023-01-10T07:13:49.649Z,5.20
2023-01-10T07:14:51.134Z,5.10
2023-01-10T07:15:52.569Z,5.10
2023-01-10T07:16:54.030Z,5.10
2023-01-10T07:17:58.524Z,5.10
2023-01-10T07:19:00.433Z,5.10
2023-01-10T07:20:01.892Z,5.10
2023-01-10T07:21:03.943Z,5.10
2023-01-10T07:22:05.502Z,5.10
2023-01-10T07:23:06.899Z,5.10
2023-01-10T07:24:08.829Z,5.10
2023-01-10T07:25:10.396Z,5.10
2023-01-10T07:26:12.271Z,5.10
2023-01-10T07:27:13.700Z,5.00
2023-01-10T07:28:15.416Z,5.00
2023-01-10T07:29:16.883Z,5.00
2023-01-10T07:30:18.537Z,5.00
2023-01-10T07:31:21.125Z,5.00
2023-01-10T07:32:22.649Z,5.10
2023-01-10T07:33:24.054Z,5.00
2023-01-10T07:34:25.850Z,5.00
2023-01-10T07:35:27.418Z,5.10
2023-01-10T07:36:28.796Z,5.00
2023-01-10T07:37:30.173Z,5.00
2023-01-10T07:38:31.644Z,5.00
2023-01-10T07:39:33.063Z,5.00
2023-01-10T07:40:34.566Z,4.90
2023-01-10T07:41:36.024Z,4.90
2023-01-10T07:42:37.856Z,4.90
2023-01-10T07:43:39.568Z,4.90
2023-01-10T07:44:41.162Z,4.90
2023-01-10T07:45:42.863Z,4.90
2023-01-10T07:46:44.332Z,4.90
2023-01-10T07:47:45.828Z,4.90
2023-01-10T07:48:49.117Z,4.90
2023-01-10T07:49:50.497Z,4.90
2023-01-10T07:50:56.670Z,4.80
2023-01-10T07:51:58.359Z,4.90
2023-01-10T07:53:01.714Z,4.90
2023-01-10T07:54:04.047Z,5.00
2023-01-10T07:55:06.551Z,5.00
2023-01-10T07:56:08.316Z,5.00
2023-01-10T07:57:09.836Z,5.00
2023-01-10T07:58:11.405Z,5.00
2023-01-10T07:59:13.854Z,5.00
2023-01-10T08:00:18.592Z,5.00
2023-01-10T08:01:20.360Z,5.10
2023-01-10T08:02:21.923Z,5.10
2023-01-10T08:03:24.857Z,5.00
2023-01-10T08:04:27.169Z,5.10
2023-01-10T08:05:28.755Z,5.00
2023-01-10T08:06:30.251Z,4.90
2023-01-10T08:07:31.910Z,5.00
2023-01-10T08:08:34.804Z,4.90
2023-01-10T08:09:36.214Z,4.90
2023-01-10T08:10:39.247Z,5.00
2023-01-10T08:11:42.561Z,4.90
2023-01-10T08:12:44.054Z,4.90
2023-01-10T08:13:45.520Z,4.90
2023-01-10T08:14:46.977Z,4.80
2023-01-10T08:15:51.733Z,4.80
2023-01-10T08:16:53.519Z,4.80
2023-01-10T08:17:55.303Z,4.80
2023-01-10T08:18:57.155Z,4.80
2023-01-10T08:19:58.753Z,4.80
2023-01-10T08:21:01.164Z,4.80
2023-01-10T08:22:03.162Z,4.80
2023-01-10T08:23:04.837Z,4.70
2023-01-10T08:24:06.677Z,4.80
2023-01-10T08:25:08.592Z,4.80
2023-01-10T08:26:10.025Z,4.70
2023-01-10T08:27:11.988Z,4.60
2023-01-10T08:28:13.883Z,4.60
2023-01-10T08:29:16.113Z,4.60
2023-01-10T08:30:17.741Z,4.60
2023-01-10T08:31:19.192Z,4.50
2023-01-10T08:32:20.907Z,4.60
2023-01-10T08:33:24.109Z,4.60
2023-01-10T08:34:25.898Z,4.70
2023-01-10T08:35:27.486Z,4.70
2023-01-10T08:36:30.090Z,4.70
2023-01-10T08:37:31.704Z,4.70
2023-01-10T08:38:33.521Z,4.60
2023-01-10T08:39:35.445Z,4.60
2023-01-10T08:40:37.090Z,4.60
2023-01-10T08:41:41.217Z,4.60
2023-01-10T08:42:42.818Z,4.60
2023-01-10T08:43:44.700Z,4.70
2023-01-10T08:44:46.593Z,4.70
2023-01-10T08:45:49.253Z,4.60
2023-01-10T08:46:50.800Z,4.60
2023-01-10T08:47:53.342Z,4.70
2023-01-10T08:48:54.763Z,4.70
2023-01-10T08:49:56.139Z,4.70
2023-01-10T08:50:57.771Z,4.70
2023-01-10T08:51:59.197Z,4.70
2023-01-10T08:53:02.106Z,4.60
2023-01-10T08:54:03.894Z,4.70
2023-01-10T08:55:05.733Z,4.80
2023-01-10T08:56:07.671Z,4.80
2023-01-10T08:57:09.455Z,4.80
2023-01-10T08:58:11.863Z,4.90
2023-01-10T08:59:13.551Z,4.90
2023-01-10T09:00:15.747Z,5.00
2023-01-10T09:01:17.721Z,5.10
2023-01-10T09:02:19.290Z,5.20
2023-01-10T09:03:21.042Z,5.20
2023-01-10T09:04:22.520Z,5.30
2023-01-10T09:05:28.349Z,5.40
2023-01-10T09:06:30.062Z,5.40
2023-01-10T09:07:31.667Z,5.50
2023-01-10T09:08:33.171Z,5.60
2023-01-10T09:09:34.592Z,5.60
2023-01-10T09:10:36.117Z,5.70
2023-01-10T09:11:37.641Z,5.70
2023-01-10T09:12:58.621Z,5.70
2023-01-10T09:14:00.048Z,5.80
2023-01-10T09:15:01.507Z,5.90
2023-01-10T09:16:03.320Z,5.90
2023-01-10T09:17:05.174Z,6.00
2023-01-10T09:18:07.914Z,6.00
2023-01-10T09:19:10.115Z,6.00
2023-01-10T09:20:11.962Z,6.10
2023-01-10T09:21:13.444Z,6.10
2023-01-10T09:22:14.895Z,6.20
2023-01-10T09:23:20.114Z,6.20
2023-01-10T09:24:21.878Z,6.30
2023-01-10T09:25:24.336Z,6.40
2023-01-10T09:26:25.869Z,6.40
2023-01-10T09:27:27.923Z,6.40
2023-01-10T09:28:29.425Z,6.50
2023-01-10T09:29:30.864Z,6.60
2023-01-10T09:30:32.894Z,6.60
2023-01-10T09:31:34.439Z,6.70
2023-01-10T09:32:35.967Z,6.70
2023-01-10T09:33:46.832Z,6.70
2023-01-10T09:34:49.080Z,6.80
2023-01-10T09:35:50.592Z,6.90
2023-01-10T09:36:53.691Z,6.90
2023-01-10T09:38:01.171Z,6.90
2023-01-10T09:39:04.389Z,6.90
2023-01-10T09:40:07.346Z,6.90
2023-01-10T09:41:48.963Z,6.80
2023-01-10T09:43:07.902Z,6.80
2023-01-10T09:44:21.255Z,6.70
2023-01-10T09:45:49.623Z,6.60
2023-01-10T09:47:14.261Z,6.50
2023-01-10T09:49:17.655Z,6.40
2023-01-10T09:50:28.179Z,6.40
2023-01-10T09:51:38.330Z,6.30
2023-01-10T09:53:13.295Z,6.30
2023-01-10T09:54:24.788Z,6.20
2023-01-10T09:55:36.123Z,6.20
2023-01-10T09:56:37.684Z,6.30
2023-01-10T09:57:39.104Z,6.20
2023-01-10T09:58:42.090Z,6.20
2023-01-10T09:59:45.625Z,6.20
2023-01-10T10:01:06.239Z,6.20
2023-01-10T10:02:35.747Z,6.30
2023-01-10T10:03:49.390Z,6.30
2023-01-10T10:05:18.184Z,6.10
2023-01-10T10:06:22.286Z,6.20
2023-01-10T10:07:23.739Z,6.10
2023-01-10T10:08:25.410Z,6.10
2023-01-10T10:09:33.054Z,6.10
2023-01-10T10:10:39.564Z,6.10
2023-01-10T10:11:52.654Z,6.10
2023-01-10T10:13:26.821Z,6.20
2023-01-10T10:14:38.600Z,6.20
2023-01-10T10:15:49.806Z,6.20
2023-01-10T10:17:08.862Z,6.30
2023-01-10T10:18:31.275Z,6.30
2023-01-10T10:20:02.860Z,6.30
2023-01-10T10:21:16.035Z,6.30
2023-01-10T10:22:48.216Z,6.30
2023-01-10T10:24:24.721Z,6.30
2023-01-10T10:25:59.202Z,6.30
2023-01-10T10:27:10.998Z,6.40
2023-01-10T10:28:21.085Z,6.50
2023-01-10T10:29:45.551Z,6.50
2023-01-10T10:31:21.874Z,6.50
2023-01-10T10:32:55.307Z,6.50
2023-01-10T10:34:26.377Z,6.70
2023-01-10T10:35:34.512Z,6.70
2023-01-10T10:36:45.274Z,6.60
2023-01-10T10:37:50.751Z,6.60
2023-01-10T10:38:55.276Z,6.60
2023-01-10T10:40:03.217Z,6.60
2023-01-10T10:41:13.106Z,6.60
2023-01-10T10:42:18.542Z,6.60
2023-01-10T10:43:28.070Z,6.60
2023-01-10T10:44:57.893Z,6.50
2023-01-10T10:46:08.349Z,6.40
2023-01-10T10:47:18.535Z,6.40
2023-01-10T10:48:39.025Z,6.40
2023-01-10T10:50:02.609Z,6.40
2023-01-10T10:51:07.116Z,6.40
2023-01-10T10:52:26.243Z,6.40
2023-01-10T10:53:28.756Z,6.50
2023-01-10T10:54:33.634Z,6.50
2023-01-10T10:55:37.560Z,6.60
2023-01-10T10:56:39.543Z,6.60
2023-01-10T10:57:55.387Z,6.70
2023-01-10T10:59:01.396Z,6.70
2023-01-10T11:00:07.256Z,6.70
2023-01-10T11:01:16.576Z,6.70
2023-01-10T11:02:33.193Z,6.90
2023-01-10T11:03:56.349Z,6.90
2023-01-10T11:05:03.342Z,6.90
2023-01-10T11:06:07.059Z,6.90
2023-01-10T11:07:16.592Z,6.90
2023-01-10T11:08:21.380Z,7.00
2023-01-10T11:09:29.105Z,7.00
2023-01-10T11:10:36.930Z,7.10
2023-01-10T11:11:47.296Z,7.10
2023-01-10T11:12:53.013Z,7.10
2023-01-10T11:13:56.218Z,7.10
2023-01-10T11:14:58.947Z,7.20
2023-01-10T11:16:02.194Z,7.10
2023-01-10T11:17:40.914Z,7.10
2023-01-10T11:18:42.559Z,7.20
2023-01-10T11:19:59.321Z,7.20
2023-01-10T11:21:03.901Z,7.20
2023-01-10T11:22:08.131Z,7.20
2023-01-10T11:23:09.759Z,7.20
2023-01-10T11:24:28.192Z,7.20
2023-01-10T11:25:30.068Z,7.10
2023-01-10T11:26:40.716Z,7.00
2023-01-10T11:27:54.096Z,7.00
2023-01-10T11:29:26.111Z,7.10
2023-01-10T11:30:33.167Z,7.10
2023-01-10T11:31:37.103Z,7.10
2023-01-10T11:32:48.223Z,7.10
2023-01-10T11:33:49.963Z,7.10
2023-01-10T11:34:59.028Z,7.20
2023-01-10T11:36:10.503Z,7.20
2023-01-10T11:37:29.160Z,7.20
2023-01-10T11:38:31.778Z,7.20
2023-01-10T11:39:33.325Z,7.30
2023-01-10T11:40:37.970Z,7.40
2023-01-10T11:41:39.452Z,7.40
2023-01-10T11:42:40.961Z,7.30
2023-01-10T11:43:42.370Z,7.30
2023-01-10T11:44:43.899Z,7.40
2023-01-10T11:45:45.439Z,7.30
2023-01-10T11:46:48.247Z,7.40
2023-01-10T11:48:18.433Z,7.30
2023-01-10T11:49:34.890Z,7.40
2023-01-10T11:50:39.717Z,7.50
2023-01-10T11:51:57.093Z,7.50
2023-01-10T11:52:58.836Z,7.60
2023-01-10T11:54:03.680Z,7.60
2023-01-10T11:55:08.083Z,7.70
2023-01-10T11:56:22.186Z,7.70
2023-01-10T11:57:28.286Z,7.70
2023-01-10T11:58:33.783Z,7.80
2023-01-10T11:59:35.710Z,7.80
2023-01-10T12:00:41.234Z,7.70
2023-01-10T12:01:48.141Z,7.80
2023-01-10T12:02:53.060Z,7.80
2023-01-10T12:03:55.197Z,7.80
2023-01-10T12:05:00.655Z,7.80
2023-01-10T12:06:07.224Z,7.80
2023-01-10T12:07:10.938Z,7.70
2023-01-10T12:08:27.342Z,7.70
2023-01-10T12:09:44.317Z,7.80
2023-01-10T12:10:58.413Z,7.80
2023-01-10T12:12:07.090Z,7.90
2023-01-10T12:13:16.077Z,8.00
2023-01-10T12:14:20.700Z,8.10
2023-01-10T12:15:24.380Z,8.10
2023-01-10T12:16:28.993Z,8.00
2023-01-10T12:17:33.900Z,8.10
2023-01-10T12:18:35.646Z,8.20
2023-01-10T12:19:37.486Z,8.30
2023-01-10T12:20:47.246Z,8.40
2023-01-10T12:21:49.272Z,8.40
2023-01-10T12:22:59.258Z,8.40
2023-01-10T12:24:12.202Z,8.40
2023-01-10T12:25:25.397Z,8.40
2023-01-10T12:26:32.332Z,8.40
2023-01-10T12:27:33.765Z,8.40
2023-01-10T12:28:37.026Z,8.40
2023-01-10T12:29:44.127Z,8.40
2023-01-10T12:30:50.952Z,8.40
2023-01-10T12:31:56.095Z,8.40
2023-01-10T12:33:02.188Z,8.40
2023-01-10T12:34:27.056Z,8.40
2023-01-10T12:36:25.297Z,8.50
2023-01-10T12:37:40.467Z,8.70
2023-01-10T12:39:03.783Z,8.70
2023-01-10T12:40:19.628Z,8.80
2023-01-10T12:41:49.055Z,8.80
2023-01-10T12:43:21.693Z,8.80
2023-01-10T12:44:30.755Z,8.90
2023-01-10T12:45:46.815Z,8.80
2023-01-10T12:47:13.072Z,8.80
2023-01-10T12:48:33.465Z,8.80
2023-01-10T12:49:48.380Z,8.80
2023-01-10T12:51:01.553Z,8.80
2023-01-10T12:52:10.695Z,8.80
2023-01-10T12:53:29.252Z,8.80
2023-01-10T12:54:31.318Z,8.80
2023-01-10T12:55:42.198Z,8.80
2023-01-10T12:56:45.119Z,8.80
2023-01-10T12:58:10.124Z,8.70
2023-01-10T12:59:32.594Z,8.50
2023-01-10T13:00:48.737Z,8.50
2023-01-10T13:01:55.240Z,8.50
2023-01-10T13:03:00.562Z,8.40
2023-01-10T13:04:13.846Z,8.40
2023-01-10T13:05:19.850Z,8.40
2023-01-10T13:06:33.187Z,8.50
2023-01-10T13:07:35.858Z,8.50
2023-01-10T13:08:41.324Z,8.50
2023-01-10T13:09:45.390Z,8.50
2023-01-10T13:10:51.238Z,8.60
2023-01-10T13:12:01.778Z,8.60
2023-01-10T13:13:09.717Z,8.60
2023-01-10T13:14:18.039Z,8.50
2023-01-10T13:15:24.564Z,8.50
2023-01-10T13:16:32.135Z,8.50
2023-01-10T13:17:33.783Z,8.50
2023-01-10T13:18:35.341Z,8.50
2023-01-10T13:19:36.826Z,8.50
2023-01-10T13:20:43.339Z,8.50
2023-01-10T13:21:45.767Z,8.50
2023-01-10T13:23:15.381Z,8.50
2023-01-10T13:24:23.030Z,8.70
2023-01-10T13:25:29.952Z,8.60
2023-01-10T13:26:54.541Z,8.60
2023-01-10T13:28:15.833Z,8.60
2023-01-10T13:29:20.683Z,8.60
2023-01-10T13:30:52.132Z,8.60
2023-01-10T13:32:00.911Z,8.60
2023-01-10T13:33:06.227Z,8.50
2023-01-10T13:34:11.558Z,8.60
2023-01-10T13:35:18.959Z,8.60
2023-01-10T13:36:24.488Z,8.50
2023-01-10T13:37:34.662Z,8.50
2023-01-10T13:38:48.597Z,8.50
2023-01-10T13:39:59.569Z,8.50
2023-01-10T13:41:05.731Z,8.50
2023-01-10T13:42:26.040Z,8.50
2023-01-10T13:43:35.066Z,8.50
2023-01-10T13:45:04.076Z,8.60
2023-01-10T13:46:18.597Z,8.60
2023-01-10T13:47:43.217Z,8.50
2023-01-10T13:49:10.484Z,8.50
2023-01-10T13:50:46.831Z,8.50
2023-01-10T13:52:20.598Z,8.50
2023-01-10T13:53:22.283Z,8.40
2023-01-10T13:54:26.501Z,8.40
2023-01-10T13:55:34.497Z,8.40
2023-01-10T13:56:43.787Z,8.40
2023-01-10T13:57:56.360Z,8.40
2023-01-10T13:59:17.389Z,8.30
2023-01-10T14:00:41.329Z,8.40
2023-01-10T14:02:02.784Z,8.40
2023-01-10T14:03:04.872Z,8.40
2023-01-10T14:04:06.993Z,8.40
2023-01-10T14:05:22.431Z,8.40
2023-01-10T14:06:30.463Z,8.40
2023-01-10T14:07:43.076Z,8.40
2023-01-10T14:09:02.104Z,8.40
2023-01-10T14:10:10.702Z,8.40
2023-01-10T14:11:13.444Z,8.40
2023-01-10T14:12:31.434Z,8.30
2023-01-10T14:13:33.065Z,8.30
2023-01-10T14:14:38.296Z,8.30
2023-01-10T14:15:42.840Z,8.30
2023-01-10T14:16:47.429Z,8.30
2023-01-10T14:18:06.817Z,8.30
2023-01-10T14:19:29.880Z,8.30
2023-01-10T14:20:35.256Z,8.30
2023-01-10T14:21:45.391Z,8.30
2023-01-10T14:23:05.542Z,8.30
2023-01-10T14:24:27.064Z,8.30
2023-01-10T14:25:30.432Z,8.30
2023-01-10T14:26:38.843Z,8.30
2023-01-10T14:27:58.999Z,8.30
2023-01-10T14:29:07.478Z,8.30
2023-01-10T14:30:35.970Z,8.30
2023-01-10T14:31:38.711Z,8.30
2023-01-10T14:32:43.710Z,8.30
2023-01-10T14:33:46.611Z,8.20
2023-01-10T14:34:49.762Z,8.30
2023-01-10T14:35:54.780Z,8.30
2023-01-10T14:37:01.656Z,8.30
2023-01-10T14:38:06.933Z,8.30
2023-01-10T14:39:13.429Z,8.20
2023-01-10T14:40:29.365Z,8.20
2023-01-10T14:41:30.745Z,8.20
2023-01-10T14:42:34.018Z,8.20
2023-01-10T14:43:57.334Z,8.20
2023-01-10T14:45:22.415Z,8.10
2023-01-10T14:46:38.678Z,8.10
2023-01-10T14:47:40.170Z,8.10
2023-01-10T14:48:51.034Z,8.10
2023-01-10T14:49:53.502Z,8.00